Arabi, Louisiana
Current Conditions -  °F | °C
As of 3:15 PM on Thursday 23 Oct 2014 (Local Time) from KVSH Reporting Station
Clear Clear  
Wind Chill: 73°   Ceiling: Unl
Heat Index: 73°   Visibility: 10mi
Dew Point: 45°   Wind: 6mph
Humidity: 36%   Direction: 80°E
Pressure: 30.04"   Gusts: NA
Location:  29.95°N, 90.01°W
Report Text: KVSH 232015Z AUTO 08005KT 10SM CLR 23/07 A3004 RMK AO1
Loading
Personal Weather Stations






























Interactive Weather Map
Tropical Storm Tracking
New forecast layout! Learn more

10-Day Weather Forecast

Advertisements
Track Severe Weather on mobile